createdAt,value
2018-04-02T00:02:07.279Z,99.90
2018-04-02T00:04:34.222Z,99.90
2018-04-02T00:07:01.173Z,99.90
2018-04-02T00:09:28.048Z,99.90
2018-04-02T00:11:59.552Z,99.90
2018-04-02T00:14:26.562Z,99.90
2018-04-02T00:16:54.277Z,99.90
2018-04-02T00:19:21.156Z,99.90
2018-04-02T00:21:48.092Z,99.90
2018-04-02T00:24:14.987Z,99.90
2018-04-02T00:26:41.943Z,99.90
2018-04-02T00:29:08.867Z,99.90
2018-04-02T00:31:36.493Z,99.90
2018-04-02T00:34:03.433Z,99.90
2018-04-02T00:36:30.389Z,99.90
2018-04-02T00:38:57.278Z,99.90
2018-04-02T00:41:24.243Z,99.90
2018-04-02T00:43:51.160Z,99.90
2018-04-02T00:46:18.032Z,99.90
2018-04-02T00:48:45.019Z,99.90
2018-04-02T00:51:11.901Z,99.90
2018-04-02T00:53:38.862Z,99.90
2018-04-02T00:56:05.746Z,99.90
2018-04-02T00:58:32.624Z,99.90
2018-04-02T01:00:59.634Z,99.90
2018-04-02T01:03:26.530Z,99.90
2018-04-02T01:05:53.568Z,99.90
2018-04-02T01:08:20.452Z,99.90
2018-04-02T01:10:47.466Z,99.90
2018-04-02T01:13:14.350Z,99.90
2018-04-02T01:15:41.296Z,99.90
2018-04-02T01:18:08.388Z,99.90
2018-04-02T01:20:35.275Z,99.90
2018-04-02T01:23:02.243Z,99.90
2018-04-02T01:25:29.264Z,99.90
2018-04-02T01:27:56.160Z,99.90
2018-04-02T01:30:23.032Z,99.90
2018-04-02T01:32:50.708Z,99.90
2018-04-02T01:35:17.588Z,99.90
2018-04-02T01:37:44.538Z,99.90
2018-04-02T01:40:11.955Z,99.90
2018-04-02T01:42:38.915Z,99.90
2018-04-02T01:45:05.858Z,99.90
2018-04-02T01:47:32.778Z,99.90
2018-04-02T01:50:00.455Z,99.90
2018-04-02T01:52:27.327Z,99.90
2018-04-02T01:54:54.261Z,99.90
2018-04-02T01:57:21.131Z,99.90
2018-04-02T01:59:48.029Z,99.90
2018-04-02T02:02:15.023Z,99.90
2018-04-02T02:04:41.979Z,99.90
2018-04-02T02:07:08.963Z,99.90
2018-04-02T02:09:36.647Z,99.90
2018-04-02T02:12:03.625Z,99.90
2018-04-02T02:14:30.484Z,99.90
2018-04-02T02:16:57.351Z,99.90
2018-04-02T02:19:25.029Z,99.90
2018-04-02T02:21:51.903Z,99.90
2018-04-02T02:24:18.851Z,99.90
2018-04-02T02:26:45.792Z,99.90
2018-04-02T02:29:12.742Z,99.90
2018-04-02T02:31:39.621Z,99.90
2018-04-02T02:34:06.516Z,99.90
2018-04-02T02:36:33.481Z,99.90
2018-04-02T02:39:00.379Z,99.90
2018-04-02T02:41:28.083Z,99.90
2018-04-02T02:43:54.962Z,99.90
2018-04-02T02:46:21.824Z,99.90
2018-04-02T02:48:48.768Z,99.90
2018-04-02T02:51:15.760Z,99.90
2018-04-02T02:53:42.645Z,99.90
2018-04-02T02:56:09.596Z,99.90
2018-04-02T02:58:36.637Z,99.90
2018-04-02T03:01:03.573Z,99.90
2018-04-02T03:03:30.505Z,99.90
2018-04-02T03:05:57.491Z,99.90
2018-04-02T03:08:24.470Z,99.90
2018-04-02T03:10:51.401Z,99.90
2018-04-02T03:13:19.080Z,99.90
2018-04-02T03:15:45.973Z,99.90
2018-04-02T03:18:12.924Z,99.90
2018-04-02T03:20:39.785Z,99.90
2018-04-02T03:23:06.715Z,99.90
2018-04-02T03:25:33.658Z,99.90
2018-04-02T03:28:00.546Z,99.90
2018-04-02T03:30:28.232Z,99.90
2018-04-02T03:32:55.129Z,99.90
2018-04-02T03:35:22.052Z,99.90
2018-04-02T03:37:49.005Z,99.90
2018-04-02T03:40:15.864Z,99.90
2018-04-02T03:42:42.840Z,99.90
2018-04-02T03:45:10.459Z,99.90
2018-04-02T03:47:37.415Z,99.90
2018-04-02T03:50:04.284Z,99.90
2018-04-02T03:52:31.912Z,99.90
2018-04-02T03:54:58.839Z,99.90
2018-04-02T03:57:25.757Z,99.90
2018-04-02T03:59:52.704Z,99.90
2018-04-02T04:02:19.592Z,99.90
2018-04-02T04:04:46.451Z,99.90
2018-04-02T04:07:13.460Z,99.90
2018-04-02T04:09:40.319Z,99.90
2018-04-02T04:12:07.218Z,99.90
2018-04-02T04:14:34.959Z,99.90
2018-04-02T04:17:01.915Z,99.90
2018-04-02T04:19:28.907Z,99.90
2018-04-02T04:21:55.828Z,99.90
2018-04-02T04:24:22.776Z,99.90
2018-04-02T04:29:36.788Z,99.90
2018-04-02T04:32:03.783Z,99.90
2018-04-02T04:34:30.688Z,99.90
2018-04-02T04:36:57.691Z,99.90
2018-04-02T04:39:24.558Z,99.90
2018-04-02T04:41:51.516Z,99.90
2018-04-02T04:44:18.437Z,99.90
2018-04-02T04:46:45.378Z,99.90
2018-04-02T04:49:12.328Z,99.90
2018-04-02T04:51:39.197Z,99.90
2018-04-02T04:54:06.155Z,99.90
2018-04-02T04:56:33.043Z,99.90
2018-04-02T04:58:59.919Z,99.90
2018-04-02T05:01:26.876Z,99.90
2018-04-02T05:03:53.811Z,99.90
2018-04-02T05:06:20.737Z,99.90
2018-04-02T05:08:47.599Z,99.90
2018-04-02T05:11:14.571Z,99.90
2018-04-02T05:13:41.506Z,99.90
2018-04-02T05:16:08.359Z,99.90
2018-04-02T05:18:35.305Z,99.90
2018-04-02T05:21:02.361Z,99.90
2018-04-02T05:23:29.215Z,99.90
2018-04-02T05:25:56.067Z,99.90
2018-04-02T05:28:22.996Z,99.90
2018-04-02T05:30:49.872Z,99.90
2018-04-02T05:33:17.567Z,99.90
2018-04-02T05:35:44.532Z,99.90
2018-04-02T05:38:11.572Z,99.90
2018-04-02T05:40:38.520Z,99.90
2018-04-02T05:43:05.389Z,99.90
2018-04-02T05:45:32.340Z,99.90
2018-04-02T05:47:59.219Z,99.90
2018-04-02T05:50:26.859Z,99.90
2018-04-02T05:52:53.807Z,99.90
2018-04-02T05:55:20.683Z,99.90
2018-04-02T05:57:47.683Z,99.90
2018-04-02T06:00:14.623Z,99.90
2018-04-02T06:02:41.553Z,99.90
2018-04-02T06:05:08.551Z,99.90
2018-04-02T06:07:36.402Z,99.90
2018-04-02T06:10:08.624Z,99.90
2018-04-02T06:12:36.586Z,99.90
2018-04-02T06:15:03.563Z,99.90
2018-04-02T06:17:34.008Z,99.90
2018-04-02T06:20:05.681Z,99.90
2018-04-02T06:22:36.175Z,99.90
2018-04-02T06:25:03.134Z,99.90
2018-04-02T06:27:34.985Z,99.90
2018-04-02T06:30:01.946Z,99.90
2018-04-02T06:32:31.684Z,99.90
2018-04-02T06:35:03.450Z,99.90
2018-04-02T06:37:35.566Z,99.90
2018-04-02T06:40:02.594Z,99.90
2018-04-02T06:42:29.666Z,99.90
2018-04-02T06:44:58.985Z,99.90
2018-04-02T06:47:26.915Z,99.90
2018-04-02T06:49:53.780Z,99.90
2018-04-02T06:52:23.148Z,99.90
2018-04-02T06:54:58.168Z,99.90
2018-04-02T06:57:31.400Z,99.90
2018-04-02T07:00:02.140Z,99.90
2018-04-02T07:02:30.073Z,99.90
2018-04-02T07:04:58.184Z,99.90
2018-04-02T07:07:31.119Z,99.90
2018-04-02T07:09:58.324Z,99.90
2018-04-02T07:12:26.707Z,99.90
2018-04-02T07:14:56.797Z,99.90
2018-04-02T07:17:24.605Z,99.90
2018-04-02T07:19:59.800Z,99.90
2018-04-02T07:22:30.861Z,99.90
2018-04-02T07:25:00.311Z,99.90
2018-04-02T07:27:31.573Z,99.90
2018-04-02T07:30:01.068Z,99.90
2018-04-02T07:32:29.216Z,99.90
2018-04-02T07:34:56.154Z,99.90
2018-04-02T07:37:27.076Z,99.90
2018-04-02T07:39:56.878Z,99.90
2018-04-02T07:42:26.078Z,99.90
2018-04-02T07:44:54.317Z,99.90
2018-04-02T07:47:21.728Z,99.90
2018-04-02T07:49:49.705Z,99.90
2018-04-02T07:52:17.499Z,99.90
2018-04-02T07:54:47.109Z,99.60
2018-04-02T07:57:17.270Z,99.40
2018-04-02T07:59:46.567Z,98.00
2018-04-02T08:02:15.356Z,96.60
2018-04-02T08:04:44.032Z,96.50
2018-04-02T08:07:13.347Z,94.10
2018-04-02T08:09:40.316Z,94.10
2018-04-02T08:12:09.309Z,92.40
2018-04-02T08:14:37.192Z,89.90
2018-04-02T08:17:16.151Z,84.00
2018-04-02T08:19:46.125Z,83.50
2018-04-02T08:22:13.027Z,82.20
2018-04-02T08:24:41.580Z,81.90
2018-04-02T08:27:21.652Z,82.00
2018-04-02T08:29:51.123Z,81.60
2018-04-02T08:32:18.147Z,82.60
2018-04-02T08:34:52.003Z,77.40
2018-04-02T08:37:25.634Z,71.30
2018-04-02T08:39:55.259Z,50.90
2018-04-02T08:42:25.513Z,45.40
2018-04-02T08:44:52.405Z,45.30
2018-04-02T08:47:20.209Z,40.80
2018-04-02T08:49:51.246Z,40.00
2018-04-02T08:52:19.241Z,39.00
2018-04-02T08:54:48.228Z,37.20
2018-04-02T08:57:18.973Z,36.10
2018-04-02T08:59:50.486Z,37.10
2018-04-02T09:02:20.720Z,40.60
2018-04-02T09:05:01.051Z,41.70
2018-04-02T09:07:34.917Z,40.60
2018-04-02T09:10:03.231Z,36.30
2018-04-02T09:12:34.324Z,37.60
2018-04-02T09:15:06.483Z,36.10
2018-04-02T09:17:37.724Z,34.60
2018-04-02T09:20:05.951Z,32.80
2018-04-02T09:22:34.673Z,32.80
2018-04-02T09:25:01.862Z,31.00
2018-04-02T09:27:30.465Z,32.80
2018-04-02T09:29:58.161Z,32.50
2018-04-02T09:32:26.489Z,34.50
2018-04-02T09:34:54.423Z,33.80
2018-04-02T09:37:21.867Z,35.10
2018-04-02T09:39:49.947Z,34.90
2018-04-02T09:42:18.498Z,34.20
2018-04-02T09:44:47.231Z,31.80
2018-04-02T09:47:15.704Z,31.50
2018-04-02T09:49:43.040Z,34.30
2018-04-02T09:52:11.758Z,35.70
2018-04-02T09:54:39.240Z,36.20
2018-04-02T09:57:07.050Z,38.70
2018-04-02T09:59:34.944Z,38.90
2018-04-02T10:02:09.819Z,40.50
2018-04-02T10:04:38.694Z,40.50
2018-04-02T10:07:05.840Z,39.40
2018-04-02T10:09:33.820Z,38.70
2018-04-02T10:12:00.804Z,39.30
2018-04-02T10:14:29.267Z,40.50
2018-04-02T10:16:57.688Z,41.70
2018-04-02T10:19:24.780Z,40.80
2018-04-02T10:21:53.035Z,43.60
2018-04-02T10:24:20.848Z,40.90
2018-04-02T10:26:48.505Z,42.30
2018-04-02T10:29:16.508Z,42.50
2018-04-02T10:31:44.693Z,41.60
2018-04-02T10:34:12.014Z,40.40
2018-04-02T10:36:39.772Z,39.80
2018-04-02T10:39:09.922Z,40.60
2018-04-02T10:41:43.788Z,40.10
2018-04-02T10:44:14.375Z,41.00
2018-04-02T10:46:43.466Z,40.50
2018-04-02T10:49:16.199Z,39.40
2018-04-02T10:54:35.304Z,43.00
2018-04-02T10:57:05.174Z,42.60
2018-04-02T10:59:49.367Z,40.90
2018-04-02T11:02:17.936Z,40.80
2018-04-02T11:04:48.379Z,39.70
2018-04-02T11:07:23.963Z,40.20
2018-04-02T11:09:51.690Z,43.50
2018-04-02T11:12:26.742Z,43.50
2018-04-02T11:14:54.420Z,41.80
2018-04-02T11:17:21.479Z,41.20
2018-04-02T11:19:48.369Z,40.50
2018-04-02T11:22:15.375Z,40.10
2018-04-02T11:24:42.256Z,40.70
2018-04-02T11:27:09.152Z,40.50
2018-04-02T11:29:39.100Z,42.00
2018-04-02T11:32:10.802Z,41.10
2018-04-02T11:34:41.537Z,39.60
2018-04-02T11:37:08.615Z,39.60
2018-04-02T11:39:46.630Z,40.10
2018-04-02T11:42:14.840Z,41.30
2018-04-02T11:44:44.471Z,39.10
2018-04-02T11:47:11.432Z,39.80
2018-04-02T11:49:38.388Z,40.30
2018-04-02T11:52:10.440Z,41.20
2018-04-02T11:54:40.596Z,40.70
2018-04-02T11:57:08.202Z,40.00
2018-04-02T11:59:35.099Z,40.70
2018-04-02T12:02:02.059Z,40.40
2018-04-02T12:04:29.054Z,37.00
2018-04-02T12:06:56.053Z,40.50
2018-04-02T12:09:23.796Z,40.50
2018-04-02T12:11:57.093Z,40.60
2018-04-02T12:14:29.713Z,38.10
2018-04-02T12:17:02.607Z,39.10
2018-04-02T12:19:29.848Z,38.90
2018-04-02T12:22:00.372Z,39.50
2018-04-02T12:24:39.158Z,38.70
2018-04-02T12:27:07.303Z,38.70
2018-04-02T12:29:34.274Z,38.60
2018-04-02T12:32:01.170Z,40.60
2018-04-02T12:34:28.136Z,40.90
2018-04-02T12:36:55.019Z,39.50
2018-04-02T12:39:21.957Z,40.00
2018-04-02T12:41:48.848Z,40.70
2018-04-02T12:44:15.859Z,42.20
2018-04-02T12:46:42.716Z,39.40
2018-04-02T12:49:09.656Z,39.20
2018-04-02T12:51:36.604Z,40.40
2018-04-02T12:54:03.494Z,40.80
2018-04-02T12:56:30.601Z,39.20
2018-04-02T12:58:57.641Z,39.70
2018-04-02T13:01:24.516Z,38.70
2018-04-02T13:03:52.125Z,39.30
2018-04-02T13:06:19.942Z,39.30
2018-04-02T13:08:47.372Z,39.80
2018-04-02T13:11:14.383Z,40.30
2018-04-02T13:13:48.241Z,39.70
2018-04-02T13:16:29.272Z,39.60
2018-04-02T13:18:56.211Z,39.60
2018-04-02T13:21:27.576Z,40.80
2018-04-02T13:23:54.472Z,38.60
2018-04-02T13:26:21.393Z,39.40
2018-04-02T13:28:53.995Z,39.50
2018-04-02T13:31:20.896Z,37.30
2018-04-02T13:33:56.352Z,39.20
2018-04-02T13:36:23.435Z,37.30
2018-04-02T13:38:50.386Z,38.40
2018-04-02T13:41:17.256Z,37.80
2018-04-02T13:43:44.150Z,38.30
2018-04-02T13:46:11.133Z,38.80
2018-04-02T13:48:38.020Z,39.10
2018-04-02T13:51:04.943Z,38.70
2018-04-02T13:53:31.973Z,38.90
2018-04-02T13:56:00.081Z,37.90
2018-04-02T13:58:27.947Z,37.80
2018-04-02T14:00:54.890Z,39.00
2018-04-02T14:03:21.876Z,38.40
2018-04-02T14:05:48.817Z,38.90
2018-04-02T14:08:28.819Z,36.90
2018-04-02T14:10:57.212Z,35.80
2018-04-02T14:13:24.189Z,35.30
2018-04-02T14:15:51.696Z,36.80
2018-04-02T14:18:18.795Z,37.50
2018-04-02T14:20:45.764Z,37.10
2018-04-02T14:23:12.711Z,36.50
2018-04-02T14:25:39.595Z,38.80
2018-04-02T14:28:12.844Z,38.50
2018-04-02T14:30:40.429Z,37.10
2018-04-02T14:33:08.671Z,38.20
2018-04-02T14:35:35.696Z,38.10
2018-04-02T14:38:02.584Z,37.70
2018-04-02T14:40:31.501Z,38.50
2018-04-02T14:42:59.721Z,38.20
2018-04-02T14:45:26.592Z,38.20
2018-04-02T14:47:53.536Z,37.80
2018-04-02T14:50:21.473Z,38.10
2018-04-02T14:52:51.995Z,39.10
2018-04-02T14:55:18.946Z,40.00
2018-04-02T14:57:47.191Z,39.60
2018-04-02T15:00:14.750Z,40.00
2018-04-02T15:02:42.427Z,40.70
2018-04-02T15:05:09.941Z,40.70
2018-04-02T15:07:37.888Z,41.00
2018-04-02T15:10:04.857Z,40.70
2018-04-02T15:12:43.131Z,41.90
2018-04-02T15:15:11.130Z,39.40
2018-04-02T15:17:38.084Z,39.40
2018-04-02T15:20:05.489Z,38.80
2018-04-02T15:22:32.440Z,38.60
2018-04-02T15:24:59.427Z,39.40
2018-04-02T15:27:26.314Z,39.10
2018-04-02T15:29:54.022Z,38.60
2018-04-02T15:32:20.880Z,38.50
2018-04-02T15:34:47.757Z,37.40
2018-04-02T15:37:14.681Z,38.10
2018-04-02T15:39:41.627Z,37.70
2018-04-02T15:42:08.514Z,38.90
2018-04-02T15:44:36.208Z,38.40
2018-04-02T15:47:03.149Z,38.40
2018-04-02T15:49:30.105Z,38.80
2018-04-02T15:51:57.047Z,39.20
2018-04-02T15:54:23.962Z,39.60
2018-04-02T15:56:50.925Z,39.20
2018-04-02T15:59:17.862Z,39.50
2018-04-02T16:01:44.822Z,40.40
2018-04-02T16:04:11.700Z,39.30
2018-04-02T16:06:38.597Z,39.50
2018-04-02T16:09:05.598Z,40.00
2018-04-02T16:11:32.624Z,40.10
2018-04-02T16:13:59.493Z,41.00
2018-04-02T16:16:26.546Z,40.30
2018-04-02T16:18:53.426Z,41.60
2018-04-02T16:21:20.442Z,41.70
2018-04-02T16:23:47.361Z,42.50
2018-04-02T16:26:14.332Z,41.50
2018-04-02T16:28:41.231Z,41.30
2018-04-02T16:31:08.260Z,41.00
2018-04-02T16:33:35.200Z,41.20
2018-04-02T16:36:02.080Z,41.80
2018-04-02T16:38:29.029Z,41.60
2018-04-02T16:40:55.932Z,42.20
2018-04-02T16:43:22.922Z,42.20
2018-04-02T16:45:49.828Z,42.00
2018-04-02T16:48:16.808Z,42.40
2018-04-02T16:50:43.708Z,42.60
2018-04-02T16:53:11.930Z,43.80
2018-04-02T16:55:38.872Z,43.80
2018-04-02T16:58:05.821Z,43.50
2018-04-02T17:00:32.707Z,44.00
2018-04-02T17:02:59.596Z,44.50
2018-04-02T17:05:26.548Z,44.70
2018-04-02T17:07:53.476Z,44.50
2018-04-02T17:10:20.431Z,44.40
2018-04-02T17:12:47.325Z,44.20
2018-04-02T17:15:14.272Z,45.50
2018-04-02T17:17:41.286Z,44.80
2018-04-02T17:20:08.187Z,45.30
2018-04-02T17:22:35.112Z,44.20
2018-04-02T17:25:02.222Z,44.40
2018-04-02T17:27:29.200Z,45.00
2018-04-02T17:29:56.142Z,44.80
2018-04-02T17:32:23.155Z,45.40
2018-04-02T17:34:50.093Z,45.00
2018-04-02T17:37:17.064Z,45.30
2018-04-02T17:39:44.009Z,45.60
2018-04-02T17:42:11.008Z,46.00
2018-04-02T17:44:37.923Z,46.30
2018-04-02T17:47:04.866Z,45.80
2018-04-02T17:49:31.863Z,45.70
2018-04-02T17:51:59.585Z,46.00
2018-04-02T17:54:26.495Z,45.90
2018-04-02T17:56:53.428Z,46.40
2018-04-02T17:59:20.379Z,46.50
2018-04-02T18:01:47.364Z,46.60
2018-04-02T18:04:14.285Z,46.50
2018-04-02T18:06:41.236Z,47.00
2018-04-02T18:09:08.099Z,47.90
2018-04-02T18:11:35.689Z,48.20
2018-04-02T18:14:02.579Z,48.40
2018-04-02T18:16:29.585Z,48.50
2018-04-02T18:18:56.532Z,48.60
2018-04-02T18:21:23.427Z,49.20
2018-04-02T18:23:50.745Z,49.50
2018-04-02T18:26:18.954Z,50.50
2018-04-02T18:28:45.891Z,50.50
2018-04-02T18:31:12.798Z,49.90
2018-04-02T18:33:39.743Z,50.50
2018-04-02T18:36:06.628Z,50.90
2018-04-02T18:38:33.568Z,51.20
2018-04-02T18:41:00.480Z,51.00
2018-04-02T18:43:27.476Z,52.60
2018-04-02T18:45:54.342Z,53.50
2018-04-02T18:48:21.273Z,54.60
2018-04-02T18:50:48.283Z,55.60
2018-04-02T18:53:15.166Z,56.70
2018-04-02T18:55:43.713Z,58.90
2018-04-02T18:58:10.655Z,63.20
2018-04-02T19:00:37.599Z,66.20
2018-04-02T19:03:04.486Z,63.30
2018-04-02T19:05:31.449Z,61.80
2018-04-02T19:07:59.119Z,59.20
2018-04-02T19:10:27.401Z,59.20
2018-04-02T19:13:00.807Z,57.80
2018-04-02T19:15:29.400Z,56.60
2018-04-02T19:17:56.344Z,56.90
2018-04-02T19:20:23.341Z,56.30
2018-04-02T19:22:50.309Z,56.20
2018-04-02T19:25:17.199Z,55.10
2018-04-02T19:27:44.077Z,55.10
2018-04-02T19:30:11.061Z,54.30
2018-04-02T19:32:38.043Z,54.90
2018-04-02T19:35:05.044Z,55.30
2018-04-02T19:37:32.136Z,54.80
2018-04-02T19:39:59.053Z,54.40
2018-04-02T19:42:25.942Z,54.60
2018-04-02T19:44:54.241Z,53.40
2018-04-02T19:47:21.576Z,53.80
2018-04-02T19:49:48.456Z,53.10
2018-04-02T19:52:15.406Z,53.10
2018-04-02T19:54:42.348Z,53.50
2018-04-02T19:57:09.227Z,53.90
2018-04-02T19:59:36.176Z,54.00
2018-04-02T20:02:03.120Z,54.20
2018-04-02T20:04:30.072Z,55.00
2018-04-02T20:06:56.937Z,54.50
2018-04-02T20:09:24.623Z,56.30
2018-04-02T20:11:51.668Z,56.30
2018-04-02T20:14:18.609Z,55.40
2018-04-02T20:16:45.488Z,55.60
2018-04-02T20:19:12.435Z,56.50
2018-04-02T20:21:39.467Z,56.50
2018-04-02T20:24:06.349Z,56.60
2018-04-02T20:26:33.213Z,56.80
2018-04-02T20:29:00.146Z,56.30
2018-04-02T20:31:27.116Z,55.60
2018-04-02T20:33:53.992Z,56.00
2018-04-02T20:36:21.053Z,57.50
2018-04-02T20:38:47.987Z,56.80
2018-04-02T20:41:14.864Z,57.30
2018-04-02T20:43:41.792Z,58.10
2018-04-02T20:46:08.710Z,57.10
2018-04-02T20:48:35.652Z,56.70
2018-04-02T20:51:02.531Z,57.10
2018-04-02T20:53:29.451Z,55.70
2018-04-02T20:55:56.321Z,57.90
2018-04-02T20:58:23.204Z,57.40
2018-04-02T21:00:51.544Z,58.30
2018-04-02T21:03:18.488Z,58.30
2018-04-02T21:05:45.364Z,58.80
2018-04-02T21:08:12.308Z,59.50
2018-04-02T21:10:39.180Z,58.60
2018-04-02T21:26:55.660Z,60.90
2018-04-02T21:29:22.650Z,64.10
2018-04-02T21:31:49.517Z,64.70
2018-04-02T21:34:17.658Z,64.90
2018-04-02T21:36:45.896Z,66.30
2018-04-02T21:39:12.920Z,65.60
2018-04-02T21:41:39.795Z,65.90
2018-04-02T21:44:07.752Z,65.90
2018-04-02T21:46:35.497Z,67.20
2018-04-02T21:49:02.522Z,68.50
2018-04-02T21:51:29.431Z,67.30
2018-04-02T21:53:57.161Z,67.40
2018-04-02T21:56:24.314Z,67.40
2018-04-02T21:58:51.315Z,67.20
2018-04-02T22:01:29.543Z,69.10
2018-04-02T22:03:57.449Z,69.20
2018-04-02T22:06:36.326Z,69.50
2018-04-02T22:09:15.587Z,69.80
2018-04-02T22:11:43.173Z,69.60
2018-04-02T22:14:10.190Z,69.40
2018-04-02T22:16:47.453Z,69.50
2018-04-02T22:19:27.070Z,69.90
2018-04-02T22:22:06.499Z,71.90
2018-04-02T22:24:45.878Z,71.90
2018-04-02T22:27:24.433Z,71.70
2018-04-02T22:30:04.347Z,71.60
2018-04-02T22:32:42.585Z,71.50
2018-04-02T22:35:20.415Z,73.20
2018-04-02T22:37:58.093Z,74.10
2018-04-02T22:40:37.783Z,74.10
2018-04-02T22:43:18.024Z,75.90
2018-04-02T22:45:45.879Z,77.70
2018-04-02T22:48:24.403Z,83.50
2018-04-02T22:50:52.805Z,90.20
2018-04-02T22:53:31.994Z,88.50
2018-04-02T22:55:59.658Z,88.50
2018-04-02T22:58:26.520Z,90.50
2018-04-02T23:00:54.660Z,92.00
2018-04-02T23:03:22.470Z,97.60
2018-04-02T23:05:50.261Z,98.30
2018-04-02T23:08:17.267Z,97.90
2018-04-02T23:10:44.176Z,98.90
2018-04-02T23:13:11.216Z,97.30
2018-04-02T23:15:38.108Z,97.60
2018-04-02T23:18:04.996Z,98.90
2018-04-02T23:20:31.928Z,99.90
2018-04-02T23:23:01.119Z,99.90
2018-04-02T23:25:28.115Z,99.90
2018-04-02T23:27:55.982Z,99.90
2018-04-02T23:30:23.527Z,99.90
2018-04-02T23:32:52.018Z,99.90
2018-04-02T23:35:19.023Z,99.90
2018-04-02T23:37:46.719Z,99.90
2018-04-02T23:40:13.591Z,99.90
2018-04-02T23:42:40.521Z,99.90
2018-04-02T23:45:08.168Z,99.70
2018-04-02T23:47:36.670Z,99.20
2018-04-02T23:50:03.720Z,99.90
2018-04-02T23:52:30.647Z,97.70
2018-04-02T23:54:57.511Z,98.50
2018-04-02T23:57:24.431Z,99.80
2018-04-02T23:59:52.636Z,98.30
